createdAt,value
2023-04-01T00:00:10.766Z,905.00
2023-04-01T00:01:11.739Z,893.00
2023-04-01T00:02:11.851Z,892.00
2023-04-01T00:03:10.865Z,898.00
2023-04-01T00:04:11.951Z,890.00
2023-04-01T00:05:11.941Z,883.00
2023-04-01T00:06:11.982Z,894.00
2023-04-01T00:07:11.821Z,893.00
2023-04-01T00:08:12.066Z,886.00
2023-04-01T00:09:12.118Z,884.00
2023-04-01T00:10:11.159Z,889.00
2023-04-01T00:11:12.196Z,877.00
2023-04-01T00:12:12.308Z,885.00
2023-04-01T00:13:12.317Z,884.00
2023-04-01T00:14:12.339Z,889.00
2023-04-01T00:15:11.406Z,873.00
2023-04-01T00:16:21.023Z,883.00
2023-04-01T00:17:12.438Z,885.00
2023-04-01T00:18:12.423Z,888.00
2023-04-01T00:19:12.423Z,888.00
2023-04-01T00:20:11.414Z,886.00
2023-04-01T00:21:12.429Z,883.00
2023-04-01T00:22:11.400Z,893.00
2023-04-01T00:23:12.418Z,885.00
2023-04-01T00:24:12.395Z,883.00
2023-04-01T00:25:12.386Z,877.00
2023-04-01T00:26:12.392Z,877.00
2023-04-01T00:27:12.374Z,886.00
2023-04-01T00:28:12.413Z,879.00
2023-04-01T00:29:12.373Z,875.00
2023-04-01T00:30:12.366Z,883.00
2023-04-01T00:31:11.523Z,870.00
2023-04-01T00:32:12.346Z,882.00
2023-04-01T00:33:12.385Z,876.00
2023-04-01T00:34:11.334Z,867.00
2023-04-01T00:35:12.316Z,882.00
2023-04-01T00:36:11.394Z,884.00
2023-04-01T00:37:11.300Z,876.00
2023-04-01T00:38:11.329Z,867.00
2023-04-01T00:39:11.301Z,866.00
2023-04-01T00:40:12.290Z,862.00
2023-04-01T00:41:11.275Z,876.00
2023-04-01T00:42:12.278Z,863.00
2023-04-01T00:43:12.290Z,866.00
2023-04-01T00:44:12.300Z,858.00
2023-04-01T00:45:12.281Z,870.00
2023-04-01T00:46:12.350Z,858.00
2023-04-01T00:47:12.485Z,852.00
2023-04-01T00:48:12.525Z,872.00
2023-04-01T00:49:12.505Z,865.00
2023-04-01T00:50:12.547Z,871.00
2023-04-01T00:51:12.626Z,853.00
2023-04-01T00:52:11.669Z,849.00
2023-04-01T00:53:12.749Z,855.00
2023-04-01T00:54:12.777Z,860.00
2023-04-01T00:55:12.836Z,855.00
2023-04-01T00:56:11.878Z,860.00
2023-04-01T00:57:12.980Z,856.00
2023-04-01T00:58:11.997Z,869.00
2023-04-01T00:59:13.057Z,853.00
2023-04-01T01:00:13.147Z,854.00
2023-04-01T01:01:12.206Z,842.00
2023-04-01T01:02:12.240Z,861.00
2023-04-01T01:03:12.445Z,861.00
2023-04-01T01:04:12.338Z,859.00
2023-04-01T01:05:13.396Z,845.00
2023-04-01T01:06:13.485Z,837.00
2023-04-01T01:07:12.502Z,848.00
2023-04-01T01:08:13.584Z,845.00
2023-04-01T01:09:13.625Z,852.00
2023-04-01T01:10:12.697Z,850.00
2023-04-01T01:11:14.184Z,843.00
2023-04-01T01:12:13.788Z,853.00
2023-04-01T01:13:13.839Z,851.00
2023-04-01T01:14:13.919Z,855.00
2023-04-01T01:15:13.950Z,831.00
2023-04-01T01:16:13.160Z,846.00
2023-04-01T01:17:14.241Z,844.00
2023-04-01T01:18:13.120Z,851.00
2023-04-01T01:19:14.185Z,831.00
2023-04-01T01:20:25.497Z,837.00
2023-04-01T01:21:14.225Z,839.00
2023-04-01T01:22:14.225Z,840.00
2023-04-01T01:23:14.238Z,843.00
2023-04-01T01:24:13.224Z,841.00
2023-04-01T01:25:14.195Z,844.00
2023-04-01T01:26:13.195Z,845.00
2023-04-01T01:27:14.196Z,849.00
2023-04-01T01:28:13.188Z,845.00
2023-04-01T01:29:14.180Z,839.00
2023-04-01T01:30:13.178Z,830.00
2023-04-01T01:31:14.223Z,839.00
2023-04-01T01:32:14.229Z,835.00
2023-04-01T01:33:13.319Z,829.00
2023-04-01T01:34:14.312Z,838.00
2023-04-01T01:35:13.377Z,835.00
2023-04-01T01:36:14.461Z,817.00
2023-04-01T01:37:14.462Z,830.00
2023-04-01T01:38:14.542Z,824.00
2023-04-01T01:39:14.636Z,834.00
2023-04-01T01:40:13.623Z,823.00
2023-04-01T01:41:14.699Z,818.00
2023-04-01T01:42:14.732Z,821.00
2023-04-01T01:43:14.789Z,828.00
2023-04-01T01:44:14.849Z,817.00
2023-04-01T01:45:14.918Z,818.00
2023-04-01T01:46:15.004Z,826.00
2023-04-01T01:47:14.019Z,820.00
2023-04-01T01:48:14.106Z,823.00
2023-04-01T01:49:15.217Z,830.00
2023-04-01T01:50:15.184Z,819.00
2023-04-01T01:51:15.250Z,815.00
2023-04-01T01:52:15.315Z,830.00
2023-04-01T01:53:15.365Z,817.00
2023-04-01T01:54:15.423Z,816.00
2023-04-01T01:55:15.474Z,815.00
2023-04-01T01:56:14.551Z,817.00
2023-04-01T01:57:15.631Z,805.00
2023-04-01T01:58:14.671Z,815.00
2023-04-01T01:59:14.747Z,803.00
2023-04-01T02:00:14.825Z,808.00
2023-04-01T02:01:14.858Z,814.00
2023-04-01T02:02:14.920Z,807.00
2023-04-01T02:03:16.003Z,815.00
2023-04-01T02:04:16.320Z,816.00
2023-04-01T02:05:16.095Z,810.00
2023-04-01T02:06:16.164Z,810.00
2023-04-01T02:07:16.222Z,816.00
2023-04-01T02:08:16.287Z,817.00
2023-04-01T02:09:16.339Z,807.00
2023-04-01T02:10:16.399Z,805.00
2023-04-01T02:11:16.460Z,810.00
2023-04-01T02:12:16.529Z,810.00
2023-04-01T02:13:16.585Z,803.00
2023-04-01T02:14:16.680Z,801.00
2023-04-01T02:15:16.725Z,802.00
2023-04-01T02:16:16.792Z,802.00
2023-04-01T02:17:16.836Z,801.00
2023-04-01T02:18:15.916Z,797.00
2023-04-01T02:19:16.983Z,802.00
2023-04-01T02:20:17.029Z,804.00
2023-04-01T02:21:17.088Z,806.00
2023-04-01T02:22:17.140Z,801.00
2023-04-01T02:23:16.385Z,798.00
2023-04-01T02:24:17.267Z,795.00
2023-04-01T02:25:16.335Z,786.00
2023-04-01T02:26:17.403Z,795.00
2023-04-01T02:27:17.466Z,795.00
2023-04-01T02:28:17.538Z,791.00
2023-04-01T02:29:17.579Z,801.00
2023-04-01T02:30:17.644Z,804.00
2023-04-01T02:31:17.730Z,803.00
2023-04-01T02:32:17.752Z,790.00
2023-04-01T02:33:17.814Z,796.00
2023-04-01T02:34:17.870Z,791.00
2023-04-01T02:35:17.963Z,792.00
2023-04-01T02:36:18.104Z,794.00
2023-04-01T02:37:17.026Z,790.00
2023-04-01T02:38:18.078Z,798.00
2023-04-01T02:39:18.167Z,794.00
2023-04-01T02:40:18.225Z,785.00
2023-04-01T02:41:18.265Z,790.00
2023-04-01T02:42:17.336Z,785.00
2023-04-01T02:43:18.403Z,791.00
2023-04-01T02:44:18.434Z,796.00
2023-04-01T02:45:17.508Z,782.00
2023-04-01T02:46:18.653Z,791.00
2023-04-01T02:47:17.606Z,780.00
2023-04-01T02:48:18.679Z,780.00
2023-04-01T02:49:18.747Z,790.00
2023-04-01T02:50:18.816Z,785.00
2023-04-01T02:51:18.904Z,787.00
2023-04-01T02:52:18.931Z,787.00
2023-04-01T02:53:18.989Z,786.00
2023-04-01T02:54:19.053Z,776.00
2023-04-01T02:55:19.114Z,786.00
2023-04-01T02:56:18.185Z,784.00
2023-04-01T02:57:19.266Z,773.00
2023-04-01T02:58:19.310Z,776.00
2023-04-01T02:59:19.382Z,772.00
2023-04-01T03:00:19.477Z,785.00
2023-04-01T03:01:18.589Z,781.00
2023-04-01T03:02:18.587Z,770.00
2023-04-01T03:03:19.666Z,782.00
2023-04-01T03:04:19.686Z,771.00
2023-04-01T03:05:18.754Z,770.00
2023-04-01T03:06:19.816Z,779.00
2023-04-01T03:07:19.899Z,770.00
2023-04-01T03:08:18.931Z,770.00
2023-04-01T03:09:19.993Z,766.00
2023-04-01T03:10:20.038Z,769.00
2023-04-01T03:11:20.116Z,766.00
2023-04-01T03:12:20.161Z,772.00
2023-04-01T03:13:20.209Z,766.00
2023-04-01T03:14:20.278Z,771.00
2023-04-01T03:15:19.320Z,758.00
2023-04-01T03:16:19.431Z,768.00
2023-04-01T03:17:20.589Z,746.00
2023-04-01T03:18:19.497Z,769.00
2023-04-01T03:19:19.568Z,764.00
2023-04-01T03:20:19.606Z,759.00
2023-04-01T03:21:20.660Z,771.00
2023-04-01T03:22:20.699Z,764.00
2023-04-01T03:23:20.752Z,760.00
2023-04-01T03:24:20.785Z,763.00
2023-04-01T03:25:19.797Z,760.00
2023-04-01T03:26:19.838Z,766.00
2023-04-01T03:27:19.862Z,760.00
2023-04-01T03:28:20.898Z,753.00
2023-04-01T03:29:20.951Z,759.00
2023-04-01T03:30:20.030Z,752.00
2023-04-01T03:32:20.065Z,745.00
2023-04-01T03:33:21.118Z,758.00
2023-04-01T03:34:20.164Z,761.00
2023-04-01T03:35:21.190Z,760.00
2023-04-01T03:36:21.359Z,755.00
2023-04-01T03:37:21.313Z,744.00
2023-04-01T03:38:20.343Z,746.00
2023-04-01T03:39:21.411Z,752.00
2023-04-01T03:40:21.445Z,759.00
2023-04-01T03:41:21.499Z,754.00
2023-04-01T03:42:21.562Z,748.00
2023-04-01T03:43:20.628Z,742.00
2023-04-01T03:44:20.684Z,753.00
2023-04-01T03:45:20.777Z,731.00
2023-04-01T03:46:21.946Z,738.00
2023-04-01T03:47:21.852Z,747.00
2023-04-01T03:48:21.888Z,752.00
2023-04-01T03:49:21.932Z,745.00
2023-04-01T03:50:21.009Z,739.00
2023-04-01T03:51:22.028Z,747.00
2023-04-01T03:52:22.077Z,745.00
2023-04-01T03:53:22.163Z,740.00
2023-04-01T03:54:22.411Z,732.00
2023-04-01T03:55:21.218Z,736.00
2023-04-01T03:56:22.248Z,743.00
2023-04-01T03:57:22.311Z,740.00
2023-04-01T03:58:22.337Z,739.00
2023-04-01T03:59:22.380Z,735.00
2023-04-01T04:00:22.410Z,733.00
2023-04-01T04:01:21.466Z,741.00
2023-04-01T04:02:22.585Z,731.00
2023-04-01T04:03:22.611Z,734.00
2023-04-01T04:04:22.620Z,733.00
2023-04-01T04:05:22.633Z,741.00
2023-04-01T04:06:22.661Z,734.00
2023-04-01T04:07:22.714Z,724.00
2023-04-01T04:08:22.781Z,745.00
2023-04-01T04:09:22.782Z,733.00
2023-04-01T04:10:22.823Z,726.00
2023-04-01T04:11:21.869Z,734.00
2023-04-01T04:12:22.879Z,732.00
2023-04-01T04:13:22.903Z,723.00
2023-04-01T04:14:22.954Z,737.00
2023-04-01T04:15:23.001Z,740.00
2023-04-01T04:16:23.072Z,740.00
2023-04-01T04:17:23.162Z,727.00
2023-04-01T04:18:23.148Z,739.00
2023-04-01T04:19:23.164Z,725.00
2023-04-01T04:20:23.198Z,725.00
2023-04-01T04:21:22.221Z,727.00
2023-04-01T04:22:23.247Z,732.00
2023-04-01T04:23:23.339Z,743.00
2023-04-01T04:24:22.296Z,727.00
2023-04-01T04:25:23.336Z,719.00
2023-04-01T04:26:23.392Z,721.00
2023-04-01T04:27:23.470Z,722.00
2023-04-01T04:28:22.480Z,726.00
2023-04-01T04:29:23.534Z,726.00
2023-04-01T04:30:22.577Z,720.00
2023-04-01T04:31:23.676Z,726.00
2023-04-01T04:32:23.681Z,724.00
2023-04-01T04:33:22.716Z,715.00
2023-04-01T04:34:23.793Z,721.00
2023-04-01T04:35:23.761Z,719.00
2023-04-01T04:36:23.872Z,713.00
2023-04-01T04:37:23.879Z,713.00
2023-04-01T04:38:23.910Z,721.00
2023-04-01T04:39:23.964Z,717.00
2023-04-01T04:40:23.978Z,715.00
2023-04-01T04:41:23.341Z,716.00
2023-04-01T04:42:24.075Z,719.00
2023-04-01T04:43:24.165Z,714.00
2023-04-01T04:44:24.190Z,705.00
2023-04-01T04:45:24.246Z,709.00
2023-04-01T04:46:24.398Z,705.00
2023-04-01T04:47:24.347Z,709.00
2023-04-01T04:48:24.375Z,717.00
2023-04-01T04:49:24.428Z,714.00
2023-04-01T04:50:24.470Z,713.00
2023-04-01T04:51:24.546Z,717.00
2023-04-01T04:52:24.569Z,711.00
2023-04-01T04:53:24.616Z,714.00
2023-04-01T04:54:23.670Z,705.00
2023-04-01T04:55:24.694Z,697.00
2023-04-01T04:56:24.744Z,701.00
2023-04-01T04:57:24.810Z,706.00
2023-04-01T04:58:24.857Z,699.00
2023-04-01T04:59:23.946Z,710.00
2023-04-01T05:00:24.946Z,711.00
2023-04-01T05:01:25.097Z,709.00
2023-04-01T05:02:25.162Z,693.00
2023-04-01T05:03:24.157Z,694.00
2023-04-01T05:04:24.110Z,706.00
2023-04-01T05:05:24.120Z,702.00
2023-04-01T05:06:24.176Z,704.00
2023-04-01T05:07:25.192Z,704.00
2023-04-01T05:08:24.202Z,695.00
2023-04-01T05:09:25.248Z,709.00
2023-04-01T05:10:25.244Z,698.00
2023-04-01T05:11:25.430Z,704.00
2023-04-01T05:12:25.312Z,695.00
2023-04-01T05:13:25.347Z,701.00
2023-04-01T05:14:25.389Z,697.00
2023-04-01T05:15:25.442Z,697.00
2023-04-01T05:16:25.491Z,692.00
2023-04-01T05:17:25.493Z,683.00
2023-04-01T05:18:25.502Z,693.00
2023-04-01T05:19:25.567Z,701.00
2023-04-01T05:20:25.607Z,698.00
2023-04-01T05:21:24.627Z,693.00
2023-04-01T05:22:24.647Z,690.00
2023-04-01T05:23:25.673Z,687.00
2023-04-01T05:24:25.723Z,696.00
2023-04-01T05:25:25.725Z,685.00
2023-04-01T05:26:25.755Z,690.00
2023-04-01T05:27:25.777Z,683.00
2023-04-01T05:28:25.815Z,689.00
2023-04-01T05:29:25.851Z,690.00
2023-04-01T05:30:25.867Z,693.00
2023-04-01T05:31:25.178Z,694.00
2023-04-01T05:32:25.961Z,689.00
2023-04-01T05:33:25.983Z,687.00
2023-04-01T05:34:26.035Z,684.00
2023-04-01T05:35:26.060Z,678.00
2023-04-01T05:36:25.084Z,678.00
2023-04-01T05:37:25.942Z,666.00
2023-04-01T05:38:26.163Z,685.00
2023-04-01T05:39:26.196Z,684.00
2023-04-01T05:40:26.231Z,685.00
2023-04-01T05:41:25.245Z,680.00
2023-04-01T05:42:26.282Z,669.00
2023-04-01T05:43:26.312Z,686.00
2023-04-01T05:44:26.360Z,674.00
2023-04-01T05:45:25.362Z,667.00
2023-04-01T05:46:26.488Z,684.00
2023-04-01T05:47:26.532Z,666.00
2023-04-01T05:48:26.757Z,670.00
2023-04-01T05:49:28.378Z,671.00
2023-04-01T05:50:26.509Z,684.00
2023-04-01T05:51:26.524Z,684.00
2023-04-01T05:52:26.496Z,680.00
2023-04-01T05:53:26.480Z,678.00
2023-04-01T05:54:25.487Z,681.00
2023-04-01T05:55:26.464Z,684.00
2023-04-01T05:56:26.456Z,666.00
2023-04-01T05:57:26.480Z,669.00
2023-04-01T05:58:26.456Z,674.00
2023-04-01T05:59:26.454Z,674.00
2023-04-01T06:00:26.431Z,663.00
2023-04-01T06:01:26.424Z,670.00
2023-04-01T06:02:26.462Z,666.00
2023-04-01T06:03:25.682Z,666.00
2023-04-01T06:04:26.461Z,676.00
2023-04-01T06:05:26.418Z,671.00
2023-04-01T06:06:25.396Z,662.00
2023-04-01T06:07:26.405Z,674.00
2023-04-01T06:08:26.375Z,660.00
2023-04-01T06:09:26.386Z,663.00
2023-04-01T06:10:26.369Z,670.00
2023-04-01T06:11:26.366Z,662.00
2023-04-01T06:12:25.357Z,668.00
2023-04-01T06:13:26.353Z,665.00
2023-04-01T06:14:26.350Z,664.00
2023-04-01T06:15:26.341Z,660.00
2023-04-01T06:16:25.463Z,662.00
2023-04-01T06:17:25.352Z,662.00
2023-04-01T06:18:26.318Z,675.00
2023-04-01T06:19:25.335Z,672.00
2023-04-01T06:20:26.288Z,662.00
2023-04-01T06:21:26.297Z,665.00
2023-04-01T06:22:26.284Z,658.00
2023-04-01T06:23:26.295Z,664.00
2023-04-01T06:24:26.253Z,661.00
2023-04-01T06:25:26.268Z,665.00
2023-04-01T06:26:26.256Z,662.00
2023-04-01T06:27:26.269Z,660.00
2023-04-01T06:28:26.310Z,660.00
2023-04-01T06:29:25.353Z,664.00
2023-04-01T06:30:26.412Z,662.00
2023-04-01T06:31:25.527Z,665.00
2023-04-01T06:32:26.525Z,659.00
2023-04-01T06:33:25.501Z,660.00
2023-04-01T06:34:26.556Z,663.00
2023-04-01T06:35:26.620Z,661.00
2023-04-01T06:36:26.672Z,658.00
2023-04-01T06:37:25.663Z,661.00
2023-04-01T06:38:26.701Z,658.00
2023-04-01T06:39:26.737Z,662.00
2023-04-01T06:40:25.775Z,657.00
2023-04-01T06:41:26.794Z,658.00
2023-04-01T06:42:26.833Z,660.00
2023-04-01T06:43:26.863Z,659.00
2023-04-01T06:44:26.914Z,661.00
2023-04-01T06:45:25.974Z,659.00
2023-04-01T06:46:27.057Z,659.00
2023-04-01T06:47:27.050Z,654.00
2023-04-01T06:48:26.088Z,654.00
2023-04-01T06:49:27.117Z,659.00
2023-04-01T06:50:26.167Z,656.00
2023-04-01T06:51:27.215Z,653.00
2023-04-01T06:52:27.224Z,661.00
2023-04-01T06:53:27.373Z,654.00
2023-04-01T06:54:27.287Z,655.00
2023-04-01T06:55:27.324Z,656.00
2023-04-01T06:56:26.349Z,652.00
2023-04-01T06:57:27.429Z,659.00
2023-04-01T06:58:26.412Z,657.00
2023-04-01T06:59:27.461Z,655.00
2023-04-01T07:00:27.490Z,656.00
2023-04-01T07:01:27.555Z,652.00
2023-04-01T07:02:27.613Z,658.00
2023-04-01T07:03:26.629Z,654.00
2023-04-01T07:04:26.711Z,659.00
2023-04-01T07:05:26.703Z,653.00
2023-04-01T07:06:27.731Z,652.00
2023-04-01T07:07:27.802Z,652.00
2023-04-01T07:08:27.824Z,659.00
2023-04-01T07:09:27.863Z,649.00
2023-04-01T07:10:27.899Z,650.00
2023-04-01T07:11:27.930Z,658.00
2023-04-01T07:12:27.976Z,656.00
2023-04-01T07:13:27.027Z,661.00
2023-04-01T07:14:28.073Z,652.00
2023-04-01T07:15:28.450Z,654.00
2023-04-01T07:16:28.179Z,657.00
2023-04-01T07:17:28.236Z,657.00
2023-04-01T07:18:27.252Z,654.00
2023-04-01T07:19:28.312Z,653.00
2023-04-01T07:20:27.351Z,652.00
2023-04-01T07:21:28.367Z,652.00
2023-04-01T07:22:28.415Z,652.00
2023-04-01T07:23:28.471Z,653.00
2023-04-01T07:24:28.471Z,654.00
2023-04-01T07:25:27.541Z,652.00
2023-04-01T07:26:28.568Z,654.00
2023-04-01T07:27:28.572Z,653.00
2023-04-01T07:28:28.623Z,654.00
2023-04-01T07:29:27.675Z,654.00
2023-04-01T07:30:27.692Z,657.00
2023-04-01T07:31:27.750Z,650.00
2023-04-01T07:32:28.800Z,654.00
2023-04-01T07:33:28.805Z,652.00
2023-04-01T07:34:28.825Z,657.00
2023-04-01T07:35:28.885Z,656.00
2023-04-01T07:36:28.925Z,648.00
2023-04-01T07:37:28.962Z,654.00
2023-04-01T07:38:29.113Z,649.00
2023-04-01T07:39:29.115Z,650.00
2023-04-01T07:40:28.084Z,653.00
2023-04-01T07:41:29.125Z,653.00
2023-04-01T07:42:29.145Z,651.00
2023-04-01T07:43:29.188Z,651.00
2023-04-01T07:44:29.232Z,651.00
2023-04-01T07:45:29.313Z,651.00
2023-04-01T07:46:29.347Z,651.00
2023-04-01T07:47:29.404Z,652.00
2023-04-01T07:48:28.401Z,653.00
2023-04-01T07:49:29.453Z,654.00
2023-04-01T07:50:29.538Z,653.00
2023-04-01T07:51:29.515Z,656.00
2023-04-01T07:52:29.549Z,654.00
2023-04-01T07:53:28.606Z,654.00
2023-04-01T07:54:28.647Z,648.00
2023-04-01T07:55:28.690Z,651.00
2023-04-01T07:56:29.714Z,648.00
2023-04-01T07:57:29.841Z,650.00
2023-04-01T07:58:28.805Z,650.00
2023-04-01T07:59:29.851Z,654.00
2023-04-01T08:00:29.873Z,656.00
2023-04-01T08:01:28.935Z,648.00
2023-04-01T08:02:30.075Z,652.00
2023-04-01T08:03:29.469Z,649.00
2023-04-01T08:04:30.264Z,652.00
2023-04-01T08:05:29.141Z,656.00
2023-04-01T08:06:30.174Z,647.00
2023-04-01T08:07:30.218Z,655.00
2023-04-01T08:08:30.269Z,651.00
2023-04-01T08:09:30.345Z,651.00
2023-04-01T08:10:30.361Z,653.00
2023-04-01T08:11:30.446Z,651.00
2023-04-01T08:12:30.452Z,655.00
2023-04-01T08:13:30.510Z,649.00
2023-04-01T08:14:30.540Z,651.00
2023-04-01T08:15:30.596Z,650.00
2023-04-01T08:16:30.688Z,646.00
2023-04-01T08:17:30.722Z,650.00
2023-04-01T08:18:30.755Z,648.00
2023-04-01T08:19:30.770Z,652.00
2023-04-01T08:20:30.843Z,648.00
2023-04-01T08:21:30.859Z,649.00
2023-04-01T08:22:30.933Z,650.00
2023-04-01T08:23:30.974Z,649.00
2023-04-01T08:24:40.696Z,653.00
2023-04-01T08:25:31.212Z,653.00
2023-04-01T08:26:31.053Z,655.00
2023-04-01T08:27:31.022Z,654.00
2023-04-01T08:28:31.082Z,652.00
2023-04-01T08:29:30.983Z,652.00
2023-04-01T08:30:30.978Z,653.00
2023-04-01T08:31:31.033Z,649.00
2023-04-01T08:32:31.011Z,654.00
2023-04-01T08:33:30.966Z,650.00
2023-04-01T08:34:30.968Z,652.00
2023-04-01T08:35:32.620Z,651.00
2023-04-01T08:36:30.988Z,663.00
2023-04-01T08:37:30.932Z,655.00
2023-04-01T08:38:31.025Z,650.00
2023-04-01T08:39:29.913Z,656.00
2023-04-01T08:40:30.916Z,653.00
2023-04-01T08:41:29.915Z,649.00
2023-04-01T08:42:30.918Z,652.00
2023-04-01T08:43:30.919Z,648.00
2023-04-01T08:44:30.883Z,651.00
2023-04-01T08:45:31.064Z,647.00
2023-04-01T08:46:29.885Z,652.00
2023-04-01T08:47:30.913Z,647.00
2023-04-01T08:48:30.917Z,650.00
2023-04-01T08:49:30.877Z,652.00
2023-04-01T08:50:30.893Z,647.00
2023-04-01T08:51:30.861Z,649.00
2023-04-01T08:52:30.872Z,645.00
2023-04-01T08:53:30.844Z,645.00
2023-04-01T08:54:30.889Z,648.00
2023-04-01T08:55:31.093Z,644.00
2023-04-01T08:56:30.832Z,650.00
2023-04-01T08:57:30.902Z,650.00
2023-04-01T08:58:29.852Z,649.00
2023-04-01T08:59:29.933Z,646.00
2023-04-01T09:00:30.958Z,644.00
2023-04-01T09:01:31.047Z,650.00
2023-04-01T09:02:31.153Z,649.00
2023-04-01T09:03:31.215Z,649.00
2023-04-01T09:04:31.509Z,650.00
2023-04-01T09:05:31.430Z,650.00
2023-04-01T09:06:31.316Z,641.00
2023-04-01T09:07:31.416Z,640.00
2023-04-01T09:08:31.415Z,646.00
2023-04-01T09:09:31.475Z,641.00
2023-04-01T09:10:31.517Z,644.00
2023-04-01T09:11:30.593Z,647.00
2023-04-01T09:12:30.615Z,646.00
2023-04-01T09:13:31.678Z,646.00
2023-04-01T09:14:31.731Z,646.00
2023-04-01T09:15:32.072Z,646.00
2023-04-01T09:16:31.877Z,647.00
2023-04-01T09:17:31.900Z,649.00
2023-04-01T09:18:30.923Z,645.00
2023-04-01T09:19:31.987Z,650.00
2023-04-01T09:20:31.021Z,643.00
2023-04-01T09:21:32.097Z,646.00
2023-04-01T09:22:31.112Z,647.00
2023-04-01T09:23:32.179Z,647.00
2023-04-01T09:24:32.238Z,648.00
2023-04-01T09:25:31.484Z,643.00
2023-04-01T09:26:31.330Z,640.00
2023-04-01T09:27:32.357Z,641.00
2023-04-01T09:28:32.407Z,646.00
2023-04-01T09:29:32.467Z,644.00
2023-04-01T09:30:32.493Z,645.00
2023-04-01T09:31:32.625Z,644.00
2023-04-01T09:32:32.606Z,642.00
2023-04-01T09:33:31.616Z,644.00
2023-04-01T09:34:32.676Z,641.00
2023-04-01T09:35:32.096Z,638.00
2023-04-01T09:36:31.762Z,642.00
2023-04-01T09:37:32.795Z,644.00
2023-04-01T09:38:32.834Z,644.00
2023-04-01T09:39:32.883Z,641.00
2023-04-01T09:40:32.920Z,640.00
2023-04-01T09:41:32.983Z,640.00
2023-04-01T09:42:31.990Z,639.00
2023-04-01T09:43:33.037Z,643.00
2023-04-01T09:44:33.099Z,637.00
2023-04-01T09:45:32.351Z,645.00
2023-04-01T09:46:32.196Z,642.00
2023-04-01T09:47:33.279Z,643.00
2023-04-01T09:48:33.257Z,644.00
2023-04-01T09:49:32.292Z,642.00
2023-04-01T09:50:33.341Z,639.00
2023-04-01T09:51:32.389Z,643.00
2023-04-01T09:52:33.463Z,639.00
2023-04-01T09:53:32.482Z,640.00
2023-04-01T09:54:33.530Z,634.00
2023-04-01T09:55:33.780Z,642.00
2023-04-01T09:57:32.699Z,644.00
2023-04-01T09:58:33.697Z,638.00
2023-04-01T09:59:33.712Z,640.00
2023-04-01T10:00:33.756Z,635.00
2023-04-01T10:01:33.864Z,639.00
2023-04-01T10:02:33.909Z,639.00
2023-04-01T10:03:33.907Z,637.00
2023-04-01T10:04:33.938Z,637.00
2023-04-01T10:05:34.191Z,644.00
2023-04-01T10:06:34.016Z,641.00
2023-04-01T10:07:33.044Z,644.00
2023-04-01T10:08:34.053Z,636.00
2023-04-01T10:09:34.105Z,643.00
2023-04-01T10:10:34.140Z,640.00
2023-04-01T10:11:34.220Z,638.00
2023-04-01T10:12:34.221Z,639.00
2023-04-01T10:13:34.249Z,643.00
2023-04-01T10:14:34.303Z,639.00
2023-04-01T10:15:33.507Z,643.00
2023-04-01T10:16:33.435Z,644.00
2023-04-01T10:17:34.404Z,643.00
2023-04-01T10:18:34.434Z,641.00
2023-04-01T10:19:34.494Z,640.00
2023-04-01T10:20:33.506Z,641.00
2023-04-01T10:21:34.560Z,640.00
2023-04-01T10:22:34.600Z,642.00
2023-04-01T10:23:33.650Z,636.00
2023-04-01T10:24:34.657Z,641.00
2023-04-01T10:25:35.185Z,642.00
2023-04-01T10:26:33.731Z,644.00
2023-04-01T10:27:33.786Z,643.00
2023-04-01T10:28:34.824Z,642.00
2023-04-01T10:29:33.863Z,640.00
2023-04-01T10:30:34.902Z,640.00
2023-04-01T10:31:34.976Z,639.00
2023-04-01T10:32:35.008Z,643.00
2023-04-01T10:33:35.025Z,644.00
2023-04-01T10:34:35.053Z,646.00
2023-04-01T10:35:35.627Z,644.00
2023-04-01T10:36:35.139Z,643.00
2023-04-01T10:37:34.182Z,646.00
2023-04-01T10:38:35.211Z,644.00
2023-04-01T10:39:35.250Z,647.00
2023-04-01T10:40:34.267Z,646.00
2023-04-01T10:41:35.309Z,640.00
2023-04-01T10:42:35.344Z,638.00
2023-04-01T10:43:35.361Z,642.00
2023-04-01T10:44:35.387Z,635.00
2023-04-01T10:45:35.730Z,641.00
2023-04-01T10:46:35.679Z,643.00
2023-04-01T10:47:34.607Z,643.00
2023-04-01T10:48:34.641Z,640.00
2023-04-01T10:49:35.563Z,640.00
2023-04-01T10:50:35.600Z,644.00
2023-04-01T10:51:35.674Z,646.00
2023-04-01T10:52:35.691Z,640.00
2023-04-01T10:53:35.701Z,635.00
2023-04-01T10:54:34.800Z,643.00
2023-04-01T10:55:35.024Z,640.00
2023-04-01T10:56:34.797Z,643.00
2023-04-01T10:57:35.956Z,641.00
2023-04-01T10:58:35.868Z,641.00
2023-04-01T10:59:35.905Z,641.00
2023-04-01T11:00:35.962Z,643.00
2023-04-01T11:01:36.016Z,646.00
2023-04-01T11:02:36.128Z,639.00
2023-04-01T11:03:36.190Z,638.00
2023-04-01T11:04:36.091Z,635.00
2023-04-01T11:05:36.282Z,640.00
2023-04-01T11:06:36.154Z,640.00
2023-04-01T11:07:36.218Z,645.00
2023-04-01T11:08:36.245Z,640.00
2023-04-01T11:09:35.283Z,642.00
2023-04-01T11:10:36.331Z,646.00
2023-04-01T11:11:36.347Z,644.00
2023-04-01T11:12:36.403Z,642.00
2023-04-01T11:13:35.440Z,645.00
2023-04-01T11:14:36.504Z,643.00
2023-04-01T11:15:36.762Z,642.00
2023-04-01T11:16:35.717Z,642.00
2023-04-01T11:17:36.606Z,642.00
2023-04-01T11:18:36.624Z,636.00
2023-04-01T11:19:35.683Z,645.00
2023-04-01T11:20:36.721Z,646.00
2023-04-01T11:21:35.747Z,642.00
2023-04-01T11:22:36.800Z,644.00
2023-04-01T11:23:36.837Z,641.00
2023-04-01T11:24:35.857Z,634.00
2023-04-01T11:25:36.912Z,637.00
2023-04-01T11:26:36.968Z,641.00
2023-04-01T11:27:39.443Z,641.00
2023-04-01T11:28:36.957Z,648.00
2023-04-01T11:29:38.937Z,642.00
2023-04-01T11:30:36.970Z,643.00
2023-04-01T11:31:36.961Z,643.00
2023-04-01T11:32:37.020Z,646.00
2023-04-01T11:33:35.937Z,643.00
2023-04-01T11:34:36.926Z,643.00
2023-04-01T11:35:36.926Z,643.00
2023-04-01T11:36:36.947Z,641.00
2023-04-01T11:37:36.929Z,645.00
2023-04-01T11:38:36.969Z,646.00
2023-04-01T11:39:35.904Z,639.00
2023-04-01T11:40:35.873Z,638.00
2023-04-01T11:41:36.861Z,638.00
2023-04-01T11:42:36.860Z,644.00
2023-04-01T11:43:35.850Z,646.00
2023-04-01T11:44:36.863Z,637.00
2023-04-01T11:45:36.853Z,641.00
2023-04-01T11:46:36.907Z,645.00
2023-04-01T11:47:36.898Z,643.00
2023-04-01T11:48:36.823Z,635.00
2023-04-01T11:49:36.797Z,644.00
2023-04-01T11:50:35.797Z,641.00
2023-04-01T11:51:36.796Z,646.00
2023-04-01T11:52:36.823Z,644.00
2023-04-01T11:53:35.803Z,646.00
2023-04-01T11:54:35.835Z,641.00
2023-04-01T11:55:36.117Z,642.00
2023-04-01T11:56:36.916Z,636.00
2023-04-01T11:57:36.947Z,639.00
2023-04-01T11:58:36.975Z,646.00
2023-04-01T11:59:37.030Z,639.00
2023-04-01T12:00:36.085Z,648.00
2023-04-01T12:01:37.123Z,646.00
2023-04-01T12:02:36.260Z,642.00
2023-04-01T12:03:37.555Z,644.00
2023-04-01T12:04:36.296Z,644.00
2023-04-01T12:05:36.471Z,644.00
2023-04-01T12:06:37.336Z,644.00
2023-04-01T12:07:37.363Z,640.00
2023-04-01T12:08:37.404Z,643.00
2023-04-01T12:09:37.435Z,642.00
2023-04-01T12:10:36.476Z,647.00
2023-04-01T12:11:37.539Z,644.00
2023-04-01T12:12:38.233Z,641.00
2023-04-01T12:13:37.617Z,641.00
2023-04-01T12:14:36.658Z,640.00
2023-04-01T12:15:36.729Z,637.00
2023-04-01T12:16:36.791Z,643.00
2023-04-01T12:17:36.794Z,640.00
2023-04-01T12:18:37.817Z,643.00
2023-04-01T12:19:37.856Z,641.00
2023-04-01T12:20:37.957Z,644.00
2023-04-01T12:21:37.935Z,637.00
2023-04-01T12:22:37.959Z,643.00
2023-04-01T12:23:37.006Z,638.00
2023-04-01T12:24:38.049Z,639.00
2023-04-01T12:25:38.109Z,644.00
2023-04-01T12:26:38.142Z,640.00
2023-04-01T12:27:37.222Z,641.00
2023-04-01T12:28:38.230Z,642.00
2023-04-01T12:29:38.265Z,639.00
2023-04-01T12:30:37.315Z,639.00